createdAt,value
2023-05-24T00:00:22.747Z,90.02
2023-05-24T00:03:24.750Z,90.03
2023-05-24T00:06:27.654Z,90.08
2023-05-24T00:09:33.033Z,89.70
2023-05-24T00:12:34.895Z,89.35
2023-05-24T00:15:36.816Z,89.19
2023-05-24T00:18:41.629Z,88.86
2023-05-24T00:22:21.393Z,89.46
2023-05-24T00:25:23.419Z,89.08
2023-05-24T00:28:25.476Z,88.88
2023-05-24T00:31:27.466Z,89.16
2023-05-24T00:34:29.419Z,89.05
2023-05-24T00:37:31.349Z,89.72
2023-05-24T00:40:33.335Z,89.45
2023-05-24T00:43:35.684Z,88.67
2023-05-24T00:46:38.031Z,87.91
2023-05-24T00:49:40.742Z,87.29
2023-05-24T00:52:43.592Z,87.01
2023-05-24T00:55:47.386Z,87.52
2023-05-24T00:58:54.608Z,87.46
2023-05-24T01:01:56.786Z,87.41
2023-05-24T01:05:00.081Z,88.05
2023-05-24T01:08:20.620Z,87.62
2023-05-24T01:11:59.796Z,88.24
2023-05-24T01:15:15.059Z,87.94
2023-05-24T01:18:30.383Z,87.99
2023-05-24T01:21:48.452Z,88.41
2023-05-24T01:25:06.262Z,88.33
2023-05-24T01:28:09.619Z,88.32
2023-05-24T01:31:13.605Z,88.00
2023-05-24T01:34:16.307Z,88.25
2023-05-24T01:37:18.396Z,87.99
2023-05-24T01:40:20.603Z,88.08
2023-05-24T01:43:22.446Z,88.11
2023-05-24T01:46:37.537Z,88.36
2023-05-24T01:49:44.685Z,88.00
2023-05-24T01:52:48.184Z,87.95
2023-05-24T01:55:54.143Z,88.09
2023-05-24T01:58:58.908Z,87.21
2023-05-24T02:02:01.676Z,87.84
2023-05-24T02:05:04.165Z,87.44
2023-05-24T02:08:06.128Z,88.79
2023-05-24T02:12:07.833Z,88.42
2023-05-24T02:15:14.853Z,87.97
2023-05-24T02:18:18.735Z,86.96
2023-05-24T02:21:20.982Z,88.23
2023-05-24T02:24:22.996Z,87.66
2023-05-24T02:27:24.935Z,88.08
2023-05-24T02:30:27.399Z,87.85
2023-05-24T02:33:30.041Z,87.68
2023-05-24T02:36:32.699Z,87.64
2023-05-24T02:39:34.691Z,88.14
2023-05-24T02:42:36.707Z,88.86
2023-05-24T02:45:38.790Z,89.04
2023-05-24T02:48:41.071Z,90.05
2023-05-24T02:51:43.094Z,90.25
2023-05-24T02:54:44.973Z,91.23
2023-05-24T02:57:48.220Z,90.19
2023-05-24T03:00:51.063Z,90.48
2023-05-24T03:29:21.997Z,89.92
2023-05-24T03:32:25.543Z,89.93
2023-05-24T03:35:27.572Z,90.06
2023-05-24T03:38:31.854Z,90.48
2023-05-24T03:41:33.955Z,90.16
2023-05-24T03:44:35.950Z,90.51
2023-05-24T03:47:37.897Z,90.89
2023-05-24T03:50:39.943Z,90.22
2023-05-24T03:53:41.904Z,90.43
2023-05-24T03:56:44.662Z,90.87
2023-05-24T03:59:46.669Z,90.81
2023-05-24T04:02:49.337Z,90.46
2023-05-24T04:05:51.527Z,90.94
2023-05-24T04:08:53.636Z,91.42
2023-05-24T04:11:55.836Z,91.32
2023-05-24T04:14:58.837Z,91.98
2023-05-24T04:18:03.414Z,92.17
2023-05-24T04:21:05.657Z,90.86
2023-05-24T04:24:07.755Z,91.12
2023-05-24T04:27:09.990Z,91.77
2023-05-24T04:30:12.225Z,91.89
2023-05-24T04:33:15.027Z,90.88
2023-05-24T04:36:17.824Z,91.52
2023-05-24T04:39:19.783Z,91.11
2023-05-24T04:42:22.217Z,91.32
2023-05-24T04:45:25.037Z,91.28
2023-05-24T04:48:27.306Z,91.03
2023-05-24T04:51:29.450Z,91.12
2023-05-24T04:54:31.350Z,91.47
2023-05-24T04:57:33.434Z,91.63
2023-05-24T05:00:35.514Z,91.71
2023-05-24T05:03:37.476Z,91.76
2023-05-24T05:06:40.632Z,91.57
2023-05-24T05:09:42.558Z,91.63
2023-05-24T05:12:44.627Z,91.39
2023-05-24T05:15:46.579Z,91.48
2023-05-24T05:18:48.486Z,91.43
2023-05-24T05:21:50.881Z,91.35
2023-05-24T05:24:52.963Z,91.06
2023-05-24T05:27:54.939Z,90.05
2023-05-24T05:30:56.942Z,91.01
2023-05-24T05:33:59.017Z,92.23
2023-05-24T05:37:01.004Z,90.08
2023-05-24T05:40:04.095Z,90.31
2023-05-24T05:43:06.038Z,89.17
2023-05-24T05:46:08.275Z,89.34
2023-05-24T05:49:10.350Z,89.60
2023-05-24T05:52:12.390Z,89.11
2023-05-24T05:55:14.381Z,89.74
2023-05-24T05:58:16.394Z,91.56
2023-05-24T06:01:18.337Z,89.52
2023-05-24T06:04:20.521Z,88.57
2023-05-24T06:07:22.754Z,87.31
2023-05-24T06:10:24.772Z,86.70
2023-05-24T06:13:28.864Z,86.69
2023-05-24T06:16:32.635Z,86.47
2023-05-24T06:19:34.939Z,86.81
2023-05-24T06:22:38.661Z,85.81
2023-05-24T06:25:43.886Z,85.33
2023-05-24T06:28:45.838Z,88.00
2023-05-24T06:31:48.956Z,88.44
2023-05-24T06:34:51.288Z,86.89
2023-05-24T06:37:53.186Z,85.34
2023-05-24T06:40:55.220Z,87.23
2023-05-24T06:43:57.190Z,86.03
2023-05-24T06:46:59.170Z,83.97
2023-05-24T06:50:04.123Z,84.43
2023-05-24T06:53:06.790Z,84.13
2023-05-24T06:56:09.555Z,84.36
2023-05-24T06:59:11.805Z,84.83
2023-05-24T07:02:13.880Z,83.12
2023-05-24T07:05:16.078Z,80.89
2023-05-24T07:08:18.185Z,83.26
2023-05-24T07:11:20.157Z,82.46
2023-05-24T07:14:24.100Z,83.73
2023-05-24T07:17:26.413Z,84.20
2023-05-24T07:20:28.909Z,83.39
2023-05-24T07:23:31.259Z,84.19
2023-05-24T07:26:33.313Z,83.39
2023-05-24T07:29:35.330Z,84.13
2023-05-24T07:32:37.559Z,82.63
2023-05-24T07:35:40.374Z,83.94
2023-05-24T07:38:42.711Z,83.52
2023-05-24T07:41:45.084Z,81.03
2023-05-24T07:44:47.048Z,79.80
2023-05-24T07:47:49.023Z,79.16
2023-05-24T07:50:52.148Z,80.59
2023-05-24T07:53:54.069Z,80.07
2023-05-24T07:56:57.443Z,80.70
2023-05-24T07:59:59.435Z,83.12
2023-05-24T08:03:01.920Z,81.31
2023-05-24T08:06:04.185Z,82.51
2023-05-24T08:09:07.725Z,82.84
2023-05-24T08:12:09.994Z,83.37
2023-05-24T08:15:11.955Z,84.04
2023-05-24T08:18:55.379Z,81.72
2023-05-24T08:22:57.296Z,81.80
2023-05-24T08:26:20.942Z,82.43
2023-05-24T08:29:23.005Z,82.73
2023-05-24T08:32:25.211Z,82.47
2023-05-24T08:35:27.193Z,83.14
2023-05-24T08:38:29.492Z,83.20
2023-05-24T08:41:37.407Z,84.36
2023-05-24T08:44:47.256Z,83.75
2023-05-24T08:47:50.747Z,83.85
2023-05-24T08:50:53.397Z,84.47
2023-05-24T08:53:57.042Z,85.03
2023-05-24T08:56:59.652Z,84.16
2023-05-24T09:00:02.119Z,85.21
2023-05-24T09:03:06.350Z,85.25
2023-05-24T09:06:12.180Z,83.02
2023-05-24T09:09:17.913Z,83.51
2023-05-24T09:12:35.658Z,83.97
2023-05-24T09:15:39.989Z,84.44
2023-05-24T09:18:42.965Z,85.09
2023-05-24T09:21:45.355Z,84.46
2023-05-24T09:24:48.634Z,83.91
2023-05-24T09:27:52.278Z,85.78
2023-05-24T09:31:05.422Z,84.73
2023-05-24T09:34:13.533Z,84.83
2023-05-24T09:37:17.959Z,85.95
2023-05-24T09:40:20.778Z,85.30
2023-05-24T09:43:24.909Z,84.67
2023-05-24T09:46:29.857Z,84.94
2023-05-24T09:49:32.628Z,83.55
2023-05-24T09:52:38.439Z,85.19
2023-05-24T09:55:40.796Z,84.68
2023-05-24T09:58:42.936Z,84.28
2023-05-24T10:01:46.246Z,85.03
2023-05-24T10:04:48.491Z,85.50
2023-05-24T10:07:51.912Z,84.16
2023-05-24T10:10:56.560Z,84.67
2023-05-24T10:13:59.552Z,83.73
2023-05-24T10:17:10.773Z,83.74
2023-05-24T10:20:13.050Z,82.66
2023-05-24T10:34:07.046Z,78.94
2023-05-24T11:07:58.643Z,69.91
2023-05-24T11:11:28.654Z,71.20
2023-05-24T11:14:39.524Z,73.83
2023-05-24T11:18:09.392Z,71.53
2023-05-24T11:21:11.529Z,69.31
2023-05-24T11:24:13.921Z,68.45
2023-05-24T11:27:16.102Z,70.32
2023-05-24T11:30:18.453Z,67.20
2023-05-24T11:33:24.486Z,66.32
2023-05-24T11:36:26.570Z,64.06
2023-05-24T11:39:52.838Z,63.28
2023-05-24T11:42:55.281Z,65.66
2023-05-24T11:45:57.423Z,67.21
2023-05-24T11:49:00.205Z,65.24
2023-05-24T11:52:03.254Z,65.26
2023-05-24T11:55:06.276Z,66.05
2023-05-24T11:58:19.772Z,66.14
2023-05-24T12:01:27.805Z,66.21
2023-05-24T12:04:30.574Z,65.74
2023-05-24T12:07:33.124Z,63.52
2023-05-24T12:10:36.886Z,62.67
2023-05-24T12:13:40.474Z,63.18
2023-05-24T12:16:43.896Z,61.89
2023-05-24T12:19:49.987Z,62.32
2023-05-24T12:22:53.031Z,60.10
2023-05-24T12:26:01.912Z,60.75
2023-05-24T12:29:04.043Z,61.13
2023-05-24T12:32:11.951Z,62.13
2023-05-24T12:35:13.976Z,62.78
2023-05-24T12:38:25.052Z,57.89
2023-05-24T12:41:30.787Z,58.13
2023-05-24T12:44:36.109Z,58.37
2023-05-24T12:47:38.232Z,59.72
2023-05-24T12:50:40.316Z,57.14
2023-05-24T12:53:43.421Z,56.14
2023-05-24T12:56:45.751Z,58.04
2023-05-24T12:59:48.345Z,58.69
2023-05-24T13:02:53.075Z,56.62
2023-05-24T13:05:55.129Z,60.07
2023-05-24T13:08:57.114Z,58.18
2023-05-24T13:11:59.022Z,58.17
2023-05-24T13:15:00.987Z,56.51
2023-05-24T13:18:02.993Z,58.41
2023-05-24T13:21:05.583Z,58.63
2023-05-24T13:24:07.820Z,59.78
2023-05-24T13:27:10.232Z,60.47
2023-05-24T13:30:12.628Z,60.49
2023-05-24T13:33:14.956Z,62.51
2023-05-24T13:36:17.445Z,61.25
2023-05-24T13:39:20.383Z,61.92
2023-05-24T13:42:22.283Z,61.32
2023-05-24T13:45:25.134Z,60.80
2023-05-24T13:48:27.197Z,60.97
2023-05-24T13:51:29.497Z,60.12
2023-05-24T13:55:18.670Z,60.06
2023-05-24T13:58:20.814Z,59.90
2023-05-24T14:01:22.757Z,61.35
2023-05-24T14:04:24.761Z,60.61
2023-05-24T14:07:26.979Z,63.24
2023-05-24T14:10:28.974Z,61.95
2023-05-24T14:16:36.753Z,59.77
2023-05-24T14:19:39.081Z,59.94
2023-05-24T14:22:41.438Z,65.10
2023-05-24T14:25:46.498Z,68.80
2023-05-24T14:32:43.872Z,69.25
2023-05-24T14:35:46.564Z,69.83
2023-05-24T14:38:48.684Z,68.38
2023-05-24T14:41:50.721Z,67.79
2023-05-24T14:44:52.718Z,66.19
2023-05-24T14:47:54.614Z,67.37
2023-05-24T14:50:56.625Z,69.61
2023-05-24T14:53:58.648Z,69.66
2023-05-24T14:57:01.075Z,69.89
2023-05-24T15:00:03.863Z,69.92
2023-05-24T15:07:00.844Z,69.07
2023-05-24T15:10:03.215Z,68.32
2023-05-24T15:13:05.695Z,68.70
2023-05-24T15:16:07.653Z,69.91
2023-05-24T15:19:10.197Z,69.44
2023-05-24T15:22:12.178Z,69.11
2023-05-24T15:25:14.411Z,70.50
2023-05-24T15:28:18.391Z,69.09
2023-05-24T15:31:20.511Z,69.79
2023-05-24T15:34:23.747Z,68.30
2023-05-24T15:37:26.284Z,68.75
2023-05-24T15:40:28.526Z,66.46
2023-05-24T15:43:30.758Z,66.58
2023-05-24T15:46:32.823Z,66.87
2023-05-24T15:49:34.984Z,66.95
2023-05-24T15:52:37.122Z,66.89
2023-05-24T15:55:39.127Z,67.70
2023-05-24T15:58:41.124Z,69.67
2023-05-24T16:01:43.065Z,70.72
2023-05-24T16:04:44.954Z,74.11
2023-05-24T16:07:46.920Z,76.24
2023-05-24T16:10:49.222Z,77.04
2023-05-24T16:13:51.251Z,78.33
2023-05-24T16:16:53.277Z,80.78
2023-05-24T16:19:55.414Z,80.18
2023-05-24T16:22:58.133Z,80.70
2023-05-24T16:26:00.213Z,81.15
2023-05-24T16:29:02.176Z,80.68
2023-05-24T16:32:04.438Z,79.94
2023-05-24T16:35:07.568Z,79.44
2023-05-24T16:38:09.485Z,80.35
2023-05-24T16:41:11.565Z,78.24
2023-05-24T16:44:17.805Z,77.01
2023-05-24T16:47:20.139Z,77.62
2023-05-24T16:50:22.077Z,78.46
2023-05-24T16:53:26.132Z,78.80
2023-05-24T16:56:28.072Z,79.77
2023-05-24T16:59:30.052Z,79.16
2023-05-24T17:02:32.124Z,79.51
2023-05-24T17:05:34.146Z,79.34
2023-05-24T17:08:36.634Z,80.13
2023-05-24T17:11:39.696Z,80.26
2023-05-24T17:14:41.819Z,78.55
2023-05-24T17:17:43.764Z,76.55
2023-05-24T17:20:46.062Z,75.77
2023-05-24T17:23:48.468Z,75.35
2023-05-24T17:26:50.468Z,76.56
2023-05-24T17:29:52.414Z,77.22
2023-05-24T17:32:54.464Z,78.01
2023-05-24T17:35:57.684Z,78.23
2023-05-24T17:38:59.555Z,78.93
2023-05-24T17:42:01.476Z,78.06
2023-05-24T17:45:04.278Z,78.53
2023-05-24T17:48:07.089Z,79.84
2023-05-24T17:51:10.402Z,78.62
2023-05-24T17:54:12.288Z,78.71
2023-05-24T17:57:14.198Z,81.67
2023-05-24T18:00:16.982Z,81.00
2023-05-24T18:03:22.256Z,80.22
2023-05-24T18:10:24.469Z,80.62
2023-05-24T18:13:28.132Z,80.68
2023-05-24T18:16:31.498Z,80.76
2023-05-24T18:19:33.538Z,81.83
2023-05-24T18:22:35.496Z,84.03
2023-05-24T18:25:37.487Z,83.39
2023-05-24T18:28:39.514Z,83.29
2023-05-24T18:31:41.558Z,83.85
2023-05-24T18:34:43.618Z,83.32
2023-05-24T18:37:45.522Z,84.50
2023-05-24T18:44:01.501Z,83.75
2023-05-24T18:47:07.024Z,83.14
2023-05-24T18:50:09.507Z,83.30
2023-05-24T18:53:11.423Z,83.97
2023-05-24T18:56:13.471Z,84.37
2023-05-24T18:59:16.830Z,83.98
2023-05-24T19:02:18.970Z,83.84
2023-05-24T19:05:21.151Z,83.99
2023-05-24T19:08:23.074Z,83.68
2023-05-24T19:11:24.967Z,84.68
2023-05-24T19:14:26.824Z,85.19
2023-05-24T19:17:28.802Z,84.48
2023-05-24T19:20:30.914Z,84.56
2023-05-24T19:23:32.878Z,85.67
2023-05-24T19:26:34.856Z,86.29
2023-05-24T19:29:37.068Z,87.40
2023-05-24T19:32:39.024Z,88.45
2023-05-24T19:35:41.210Z,88.64
2023-05-24T19:38:43.761Z,89.06
2023-05-24T19:41:45.758Z,90.06
2023-05-24T19:44:47.726Z,89.59
2023-05-24T19:47:49.980Z,90.32
2023-05-24T19:50:51.951Z,89.49
2023-05-24T19:53:53.882Z,89.51
2023-05-24T19:56:57.775Z,89.21
2023-05-24T20:00:00.818Z,88.97
2023-05-24T20:03:02.776Z,89.05
2023-05-24T20:06:04.826Z,89.14
2023-05-24T20:09:06.867Z,88.08
2023-05-24T20:12:08.940Z,88.17
2023-05-24T20:15:11.616Z,87.37
2023-05-24T20:18:13.555Z,87.72
2023-05-24T20:21:17.456Z,87.22
2023-05-24T20:24:19.515Z,87.64
2023-05-24T20:27:21.515Z,87.71
2023-05-24T20:30:23.556Z,87.13
2023-05-24T20:33:25.612Z,88.08
2023-05-24T20:36:27.488Z,86.89
2023-05-24T20:39:29.434Z,86.59
2023-05-24T20:42:35.583Z,87.03
2023-05-24T20:45:37.576Z,87.49
2023-05-24T20:48:39.812Z,87.12
2023-05-24T20:51:41.738Z,86.96
2023-05-24T20:54:43.854Z,86.22
2023-05-24T20:57:46.162Z,86.17
2023-05-24T21:00:48.088Z,85.31
2023-05-24T21:03:50.043Z,85.90
2023-05-24T21:06:52.022Z,85.08
2023-05-24T21:09:54.209Z,85.25
2023-05-24T21:12:56.059Z,85.53
2023-05-24T21:16:00.437Z,85.35
2023-05-24T21:19:02.661Z,85.68
2023-05-24T21:22:04.808Z,85.80
2023-05-24T21:25:07.219Z,85.18
2023-05-24T21:28:10.372Z,85.16
2023-05-24T21:31:12.349Z,85.38
2023-05-24T21:34:14.306Z,85.03
2023-05-24T21:37:17.481Z,85.09
2023-05-24T21:40:19.465Z,84.51
2023-05-24T21:43:21.790Z,85.26
2023-05-24T21:46:23.726Z,84.96
2023-05-24T21:49:27.679Z,85.40
2023-05-24T21:52:29.647Z,85.37
2023-05-24T21:55:31.635Z,85.28
2023-05-24T21:58:33.518Z,84.72
2023-05-24T22:01:36.905Z,84.55
2023-05-24T22:04:38.847Z,84.65
2023-05-24T22:07:40.922Z,84.68
2023-05-24T22:10:42.812Z,84.50
2023-05-24T22:13:44.835Z,84.67
2023-05-24T22:16:46.922Z,84.90
2023-05-24T22:19:53.193Z,84.63
2023-05-24T22:22:55.204Z,85.51
2023-05-24T22:25:57.219Z,85.08
2023-05-24T22:29:04.028Z,85.34
2023-05-24T22:32:06.151Z,85.53
2023-05-24T22:35:08.875Z,86.28
2023-05-24T22:38:12.840Z,85.33
2023-05-24T22:41:14.746Z,85.42
2023-05-24T22:44:16.868Z,85.10
2023-05-24T22:47:20.182Z,85.33
2023-05-24T22:50:22.247Z,85.17
2023-05-24T22:53:32.205Z,85.10
2023-05-24T22:56:36.068Z,84.62
2023-05-24T22:59:38.025Z,84.74
2023-05-24T23:02:39.929Z,85.02
2023-05-24T23:05:42.212Z,84.88
2023-05-24T23:08:44.505Z,85.58
2023-05-24T23:11:46.346Z,85.48
2023-05-24T23:14:48.293Z,85.63
2023-05-24T23:17:52.780Z,86.06
2023-05-24T23:20:55.970Z,85.38
2023-05-24T23:23:57.910Z,85.64
2023-05-24T23:26:59.852Z,85.30
2023-05-24T23:30:01.733Z,84.92
2023-05-24T23:33:03.711Z,84.84
2023-05-24T23:36:06.115Z,84.67
2023-05-24T23:39:10.901Z,84.62
2023-05-24T23:42:12.867Z,84.95
2023-05-24T23:45:17.865Z,84.20
2023-05-24T23:48:23.182Z,84.18
2023-05-24T23:51:25.143Z,84.38
2023-05-24T23:54:27.062Z,84.98
2023-05-24T23:57:29.853Z,84.57
